Time;durP1;ratioP1;P1;durP2;ratioP2;P2;SDS_P1;SDS_P2;PMS_P1;PMS_P2;Temp;Humidity;BMP_temperature;BMP_pressure;BME280_temperature;BME280_humidity;BME280_pressure;Samples;Min_cycle;Max_cycle;Signal;HPM_P1;HPM_P2
2021/05/18 00:00:41;;;;;;;;;;;;;;;12.53;100.00;98055.66;1708962;84;20169;-66
2021/05/18 00:03:07;;;;;;;;;;;;;;;12.51;100.00;98054.55;1710013;83;20301;-66
2021/05/18 00:05:36;;;;;;;;;;;;;;;12.48;100.00;98060.77;1704248;84;20148;-66
2021/05/18 00:08:06;;;;;;;;;;;;;;;12.46;100.00;98058.82;1699578;84;20184;-66
2021/05/18 00:13:24;;;;;;;;;;;;;;;12.56;100.00;98065.35;1709822;83;20181;-65
2021/05/18 00:15:54;;;;;;;;;;;;;;;12.61;100.00;98054.16;1720039;83;20164;-66
2021/05/18 00:18:21;;;;;;;;;;;;;;;12.65;100.00;98043.97;1719959;82;20147;-66
2021/05/18 00:20:47;;;;;;;;;;;;;;;12.71;100.00;98044.48;1710440;83;20622;-66
2021/05/18 00:23:14;;;;;;;;;;;;;;;12.75;100.00;98040.41;1694903;83;20494;-66
2021/05/18 00:25:41;;;;;;;;;;;;;;;12.79;100.00;98042.47;1715311;83;20219;-66
2021/05/18 00:28:07;;;;;;;;;;;;;;;12.81;100.00;98040.42;1720927;83;20501;-66
2021/05/18 00:30:33;;;;;;;;;;;;;;;12.84;100.00;98045.02;1718866;83;20140;-65
2021/05/18 00:33:01;;;;;;;;;;;;;;;12.86;100.00;98042.46;1721052;83;20232;-66
2021/05/18 00:35:27;;;;;;;;;;;;;;;12.88;100.00;98039.09;1713182;83;20184;-66
2021/05/18 00:37:55;;;;;;;;;;;;;;;12.88;100.00;98032.46;1708790;83;20152;-66
2021/05/18 00:40:21;;;;;;;;;;;;;;;12.88;100.00;98029.00;1702502;83;20518;-66
2021/05/18 00:42:53;;;;;;;;;;;;;;;12.87;100.00;98040.61;1702020;83;20154;-65
2021/05/18 00:45:37;;;;;;;;;;;;;;;12.83;100.00;98037.58;1709653;83;20156;-66
2021/05/18 00:48:05;;;;;;;;;;;;;;;12.84;100.00;98032.56;1708660;83;20148;-66
2021/05/18 00:50:33;;;;;;;;;;;;;;;12.88;100.00;98033.78;1698256;83;20179;-66
2021/05/18 00:53:00;;;;;;;;;;;;;;;12.88;100.00;98027.16;1704403;83;20155;-66
2021/05/18 01:00:43;;;;;;;;;;;;;;;12.88;100.00;98029.80;1671559;84;20532;-66
2021/05/18 01:03:11;;;;;;;;;;;;;;;12.92;100.00;98031.55;1698357;83;20231;-66
2021/05/18 01:08:23;;;;;;;;;;;;;;;12.92;100.00;98028.38;1690187;83;20205;-66
2021/05/18 01:10:50;;;;;;;;;;;;;;;12.92;100.00;98022.27;1700876;83;20173;-66
2021/05/18 01:13:16;;;;;;;;;;;;;;;12.91;100.00;98020.64;1696342;83;20160;-66
2021/05/18 01:15:43;;;;;;;;;;;;;;;12.89;100.00;98019.52;1675753;83;20227;-66
2021/05/18 01:18:09;;;;;;;;;;;;;;;12.89;100.00;98025.34;1699878;83;20490;-66
2021/05/18 01:20:41;;;;;;;;;;;;;;;12.83;100.00;98021.66;1719142;83;20160;-65
2021/05/18 01:23:08;;;;;;;;;;;;;;;12.74;100.00;98011.75;1719506;83;20194;-66
2021/05/18 01:25:34;;;;;;;;;;;;;;;12.63;100.00;98011.83;1724408;82;20128;-66
2021/05/18 01:28:01;;;;;;;;;;;;;;;12.54;100.00;98007.73;1708794;83;20153;-66
2021/05/18 01:30:28;;;;;;;;;;;;;;;12.48;100.00;98006.41;1715329;83;20163;-66
2021/05/18 01:32:55;;;;;;;;;;;;;;;12.43;100.00;98021.58;1718452;83;20260;-66
2021/05/18 01:35:22;;;;;;;;;;;;;;;12.39;100.00;98021.16;1723143;82;20205;-66
2021/05/18 01:37:49;;;;;;;;;;;;;;;12.35;100.00;98020.45;1657543;83;20517;-66
2021/05/18 01:42:45;;;;;;;;;;;;;;;12.29;100.00;98010.63;1719696;83;20588;-66
2021/05/18 01:43:02;;;;;;;;;;;;;;;12.23;100.00;98009.59;1715292;83;20175;-66
2021/05/18 01:45:21;;;;;;;;;;;;;;;12.24;100.00;98005.94;1676402;83;20505;-66
2021/05/18 01:47:52;;;;;;;;;;;;;;;12.21;100.00;98013.78;1722577;82;20169;-66
2021/05/18 01:50:25;;;;;;;;;;;;;;;12.18;100.00;97999.59;1716847;83;20176;-66
2021/05/18 01:52:52;;;;;;;;;;;;;;;12.16;100.00;97996.33;1720881;83;20195;-66
2021/05/18 01:55:28;;;;;;;;;;;;;;;12.13;100.00;97998.05;1729182;83;20232;-66
2021/05/18 01:57:48;;;;;;;;;;;;;;;12.14;100.00;97989.09;1693203;83;20256;-66
2021/05/18 02:00:17;;;;;;;;;;;;;;;12.16;100.00;97992.88;1691378;83;20506;-66
2021/05/18 02:02:48;;;;;;;;;;;;;;;12.17;100.00;97987.35;1689906;84;20151;-66
2021/05/18 02:05:17;;;;;;;;;;;;;;;12.18;100.00;97991.65;1682830;84;20485;-66
2021/05/18 02:07:46;;;;;;;;;;;;;;;12.19;100.00;97988.00;1681698;84;20138;-66
2021/05/18 02:10:15;;;;;;;;;;;;;;;12.20;100.00;97990.94;1685316;84;20190;-66
2021/05/18 02:12:43;;;;;;;;;;;;;;;12.22;100.00;97988.09;1664001;83;20164;-66
2021/05/18 02:16:17;;;;;;;;;;;;;;;12.20;100.00;97984.31;1686744;84;20495;-66
2021/05/18 02:19:04;;;;;;;;;;;;;;;12.19;100.00;97984.51;1651223;84;20479;-66
2021/05/18 02:20:46;;;;;;;;;;;;;;;12.18;100.00;97985.54;1688119;84;20165;-66
2021/05/18 02:25:57;;;;;;;;;;;;;;;12.24;100.00;97975.45;1691236;84;20209;-66
2021/05/18 02:28:25;;;;;;;;;;;;;;;12.27;100.00;97979.05;1728115;82;20168;-66
2021/05/18 02:30:52;;;;;;;;;;;;;;;12.29;100.00;97975.68;1724030;83;20175;-66
2021/05/18 02:33:23;;;;;;;;;;;;;;;12.30;100.00;97970.67;1725218;82;20175;-66
2021/05/18 02:35:50;;;;;;;;;;;;;;;12.27;100.00;97970.25;1721915;81;20167;-66
2021/05/18 02:38:16;;;;;;;;;;;;;;;12.26;100.00;97970.77;1730312;82;20151;-66
2021/05/18 02:40:45;;;;;;;;;;;;;;;12.29;100.00;97984.95;1731234;82;20183;-66
2021/05/18 02:43:18;;;;;;;;;;;;;;;12.28;100.00;97999.73;1720474;82;20178;-66
2021/05/18 02:50:57;;;;;;;;;;;;;;;12.29;100.00;98001.34;1719510;81;20521;-64
2021/05/18 02:53:25;;;;;;;;;;;;;;;12.36;100.00;97992.91;1728714;82;20147;-65
2021/05/18 02:58:38;;;;;;;;;;;;;;;12.43;100.00;97991.09;1731127;82;20148;-65
2021/05/18 03:01:05;;;;;;;;;;;;;;;12.46;100.00;97995.20;1728454;82;20235;-65
2021/05/18 03:03:32;;;;;;;;;;;;;;;12.51;100.00;98005.50;1735625;82;20147;-65
2021/05/18 03:05:58;;;;;;;;;;;;;;;12.56;100.00;98004.88;1724596;82;20467;-65
2021/05/18 03:08:25;;;;;;;;;;;;;;;12.60;100.00;98012.22;1713827;82;20150;-65
2021/05/18 03:10:51;;;;;;;;;;;;;;;12.62;100.00;98010.70;1699210;83;20489;-65
2021/05/18 03:13:17;;;;;;;;;;;;;;;12.62;100.00;98008.05;1727156;82;20163;-65
2021/05/18 03:15:44;;;;;;;;;;;;;;;12.63;100.00;98006.53;1726374;82;20513;-64
2021/05/18 03:18:12;;;;;;;;;;;;;;;12.71;100.00;98005.52;1730429;82;20159;-64
2021/05/18 03:20:40;;;;;;;;;;;;;;;12.78;100.00;97999.70;1720044;82;20242;-65
2021/05/18 03:23:07;;;;;;;;;;;;;;;12.86;100.00;98003.99;1729310;81;20160;-64
2021/05/18 03:25:33;;;;;;;;;;;;;;;12.95;100.00;98003.30;1726865;82;20184;-65
2021/05/18 03:27:59;;;;;;;;;;;;;;;13.05;100.00;97997.57;1693357;83;20518;-64
2021/05/18 03:35:45;;;;;;;;;;;;;;;13.29;100.00;98015.52;1703845;83;20214;-65
2021/05/18 03:38:27;;;;;;;;;;;;;;;13.37;100.00;98018.49;1692541;83;20482;-66
2021/05/18 03:40:56;;;;;;;;;;;;;;;13.43;100.00;98020.83;1708028;83;20156;-65
2021/05/18 03:48:57;;;;;;;;;;;;;;;13.53;100.00;98022.05;1677792;84;20190;-65
2021/05/18 03:54:10;;;;;;;;;;;;;;;13.60;100.00;98014.08;1702871;83;20158;-65
2021/05/18 04:04:37;;;;;;;;;;;;;;;13.87;100.00;98021.97;1654470;86;20560;-65
2021/05/18 04:18:09;;;;;;;;;;;;;;;14.02;100.00;98033.14;1709097;83;20531;-65
2021/05/18 04:20:42;;;;;;;;;;;;;;;14.04;100.00;98026.30;1706244;82;20172;-64
2021/05/18 04:26:08;;;;;;;;;;;;;;;14.18;100.00;98038.52;1703622;83;20190;-65
2021/05/18 04:50:47;;;;;;;;;;;;;;;14.60;100.00;98046.91;1703705;84;20141;-64
2021/05/18 04:52:29;;;;;;;;;;;;;;;14.64;100.00;98036.14;1687107;83;20236;-65
2021/05/18 05:00:20;;;;;;;;;;;;;;;14.81;100.00;98031.11;1702029;84;20160;-65
2021/05/18 05:08:10;;;;;;;;;;;;;;;15.01;100.00;98032.84;1707843;84;20157;-66
2021/05/18 05:15:40;;;;;;;;;;;;;;;15.14;100.00;98025.55;1708023;83;20164;-67
2021/05/18 05:18:06;;;;;;;;;;;;;;;15.21;100.00;98015.38;1714593;82;20168;-67
2021/05/18 05:20:33;;;;;;;;;;;;;;;15.27;100.00;98011.30;1679442;83;20198;-67
2021/05/18 05:23:00;;;;;;;;;;;;;;;15.36;100.00;98011.85;1676937;84;20258;-68
2021/05/18 05:25:26;;;;;;;;;;;;;;;15.46;100.00;98004.68;1673589;84;20185;-68
2021/05/18 05:27:53;;;;;;;;;;;;;;;15.56;100.00;98001.01;1674736;85;20182;-63
2021/05/18 05:30:21;;;;;;;;;;;;;;;15.61;99.11;97998.47;1675507;83;20218;-63
2021/05/18 05:32:47;;;;;;;;;;;;;;;15.70;98.62;97995.01;1687031;85;20159;-62
2021/05/18 05:35:14;;;;;;;;;;;;;;;15.82;97.35;98007.09;1669170;85;20203;-62
2021/05/18 05:37:41;;;;;;;;;;;;;;;15.89;96.20;98009.97;1673764;85;20162;-67
2021/05/18 05:40:08;;;;;;;;;;;;;;;15.89;96.21;97999.31;1679327;84;20194;-64
2021/05/18 05:42:35;;;;;;;;;;;;;;;15.99;96.28;98003.30;1701533;82;20158;-64
2021/05/18 05:45:01;;;;;;;;;;;;;;;16.08;95.50;98001.47;1706936;81;20138;-66
2021/05/18 05:47:28;;;;;;;;;;;;;;;16.19;94.74;98009.73;1694649;83;20159;-65
2021/05/18 05:49:55;;;;;;;;;;;;;;;16.25;94.07;98016.33;1718376;81;20149;-67
2021/05/18 05:52:22;;;;;;;;;;;;;;;16.35;92.71;98018.45;1693515;83;20262;-64
2021/05/18 05:54:50;;;;;;;;;;;;;;;16.42;91.37;98016.52;1726793;82;20468;-67
2021/05/18 05:57:19;;;;;;;;;;;;;;;16.42;90.88;98005.84;1724338;82;20236;-71
2021/05/18 05:59:46;;;;;;;;;;;;;;;16.46;91.72;98003.01;1726919;81;20205;-65
2021/05/18 06:02:12;;;;;;;;;;;;;;;16.55;91.06;98010.68;1700668;82;20178;-66
2021/05/18 06:04:39;;;;;;;;;;;;;;;16.64;89.92;98009.31;1708130;81;20155;-67
2021/05/18 06:07:05;;;;;;;;;;;;;;;16.76;88.59;98002.17;1708720;82;20237;-69
2021/05/18 06:09:34;;;;;;;;;;;;;;;16.87;87.75;98002.74;1705936;82;20159;-64
2021/05/18 06:12:14;;;;;;;;;;;;;;;16.99;87.02;98004.09;1716169;82;20162;-71
2021/05/18 06:49:56;;;;;;;;;;;;;;;18.74;75.82;97994.30;1722076;81;20163;-68
2021/05/18 06:52:15;;;;;;;;;;;;;;;19.01;73.23;97992.65;1732291;81;20182;-69
2021/05/18 06:54:42;;;;;;;;;;;;;;;19.18;71.37;97983.80;1716662;81;20487;-69
2021/05/18 06:57:08;;;;;;;;;;;;;;;19.39;70.67;97977.70;1724278;82;20528;-69
2021/05/18 07:02:19;;;;;;;;;;;;;;;20.17;67.87;97982.17;1721983;82;20165;-69
2021/05/18 07:04:47;;;;;;;;;;;;;;;20.56;66.57;97976.66;1702544;82;21036;-69
2021/05/18 07:07:16;;;;;;;;;;;;;;;20.83;65.12;97977.19;1720612;81;20167;-73
2021/05/18 07:09:42;;;;;;;;;;;;;;;20.96;64.38;97974.61;1723361;82;20161;-72
2021/05/18 07:12:09;;;;;;;;;;;;;;;21.16;62.97;97972.07;1727730;81;20536;-68
2021/05/18 07:14:35;;;;;;;;;;;;;;;21.27;62.39;97973.76;1721062;82;20217;-72
2021/05/18 07:17:03;;;;;;;;;;;;;;;21.29;61.59;97974.84;1722114;81;20162;-70
2021/05/18 07:19:30;;;;;;;;;;;;;;;21.21;62.00;97983.38;1694650;82;20218;-75
2021/05/18 07:21:56;;;;;;;;;;;;;;;21.14;62.38;97982.27;1732550;82;20157;-74
2021/05/18 07:24:28;;;;;;;;;;;;;;;21.00;62.87;97980.55;1724657;80;20173;-76
2021/05/18 07:26:53;;;;;;;;;;;;;;;20.83;62.73;97985.25;1730609;81;20181;-72
2021/05/18 07:29:19;;;;;;;;;;;;;;;20.56;62.98;97974.78;1722980;82;20174;-74
2021/05/18 07:31:45;;;;;;;;;;;;;;;20.45;63.50;97984.34;1726345;82;20163;-65
2021/05/18 07:34:12;;;;;;;;;;;;;;;20.38;63.62;97976.48;1698502;82;20200;-72
2021/05/18 07:36:38;;;;;;;;;;;;;;;20.31;64.46;97980.72;1727067;82;20576;-70
2021/05/18 07:39:05;;;;;;;;;;;;;;;20.27;64.79;97976.09;1722497;82;20230;-73
2021/05/18 07:41:32;;;;;;;;;;;;;;;20.17;64.11;97980.83;1718186;81;20166;-66
2021/05/18 07:44:00;;;;;;;;;;;;;;;20.04;63.57;97979.88;1716491;81;20256;-69
2021/05/18 07:46:27;;;;;;;;;;;;;;;19.87;64.70;97979.41;1713628;81;20198;-67
2021/05/18 07:51:50;;;;;;;;;;;;;;;19.58;66.53;97977.39;1697298;83;20199;-67
2021/05/18 07:59:47;;;;;;;;;;;;;;;19.03;69.38;97985.72;1719782;82;20766;-70
2021/05/18 08:07:31;;;;;;;;;;;;;;;18.63;72.80;97986.11;1710656;83;20168;-69
2021/05/18 08:12:36;;;;;;;;;;;;;;;18.50;74.47;97999.80;1721800;82;20171;-67
2021/05/18 09:47:52;;;;;;;;;;;;;;;19.80;76.94;97896.98;1710239;82;20233;-65
2021/05/18 10:36:06;;;;;;;;;;;;;;;20.87;59.02;97877.56;1721930;82;20178;-66
2021/05/18 10:38:41;;;;;;;;;;;;;;;20.52;60.31;97881.05;1710911;83;20203;-66
2021/05/18 10:41:26;;;;;;;;;;;;;;;20.21;61.35;97884.53;1697228;83;20172;-65
2021/05/18 10:43:59;;;;;;;;;;;;;;;19.94;62.25;97895.54;1694112;82;20577;-68
2021/05/18 10:46:28;;;;;;;;;;;;;;;19.68;63.46;97885.03;1715367;81;20497;-65
2021/05/18 10:49:02;;;;;;;;;;;;;;;19.47;64.60;97871.09;1725507;82;20959;-63
2021/05/18 10:51:45;;;;;;;;;;;;;;;19.28;65.77;97879.97;1722151;81;20260;-65
2021/05/18 10:54:29;;;;;;;;;;;;;;;19.08;67.10;97881.33;1697643;83;20215;-66
2021/05/18 10:57:02;;;;;;;;;;;;;;;18.94;68.38;97875.49;1726236;82;20514;-67
2021/05/18 10:59:41;;;;;;;;;;;;;;;18.81;68.65;97869.98;1717775;81;20501;-67
2021/05/18 11:02:20;;;;;;;;;;;;;;;18.69;69.24;97877.79;1724579;81;20160;-67
2021/05/18 11:05:00;;;;;;;;;;;;;;;18.59;69.74;97882.43;1705142;82;20167;-66
2021/05/18 11:07:38;;;;;;;;;;;;;;;18.50;70.53;97872.67;1720818;81;20140;-67
2021/05/18 11:10:08;;;;;;;;;;;;;;;18.40;71.42;97859.12;1717531;82;20227;-67
2021/05/18 11:12:37;;;;;;;;;;;;;;;18.31;71.89;97856.56;1733624;82;20157;-67
2021/05/18 11:15:10;;;;;;;;;;;;;;;18.22;73.59;97848.94;1720294;81;20163;-68
2021/05/18 11:17:38;;;;;;;;;;;;;;;18.22;74.78;97852.16;1718229;81;20224;-70
2021/05/18 11:20:20;;;;;;;;;;;;;;;18.18;75.63;97851.82;1707068;83;20283;-65
2021/05/18 11:23:20;;;;;;;;;;;;;;;18.14;76.82;97852.53;1705611;83;20172;-67
2021/05/18 11:25:56;;;;;;;;;;;;;;;18.09;77.65;97851.93;1663326;84;20233;-66
2021/05/18 11:28:25;;;;;;;;;;;;;;;18.00;78.73;97844.81;1671812;84;20174;-66
2021/05/18 11:30:55;;;;;;;;;;;;;;;17.92;78.69;97853.23;1677759;83;20500;-66
2021/05/18 11:33:33;;;;;;;;;;;;;;;17.84;80.46;97865.13;1673292;83;20580;-67
2021/05/18 11:36:02;;;;;;;;;;;;;;;17.70;80.26;97856.27;1679631;83;20173;-64
2021/05/18 11:38:29;;;;;;;;;;;;;;;17.54;80.56;97843.92;1682786;83;20170;-65
2021/05/18 11:40:55;;;;;;;;;;;;;;;17.41;80.55;97836.19;1693416;83;20498;-64
2021/05/18 11:43:26;;;;;;;;;;;;;;;17.26;82.63;97825.50;1678557;84;20485;-65
2021/05/18 11:46:08;;;;;;;;;;;;;;;17.16;83.04;97823.95;1659830;84;20241;-66
2021/05/18 11:48:35;;;;;;;;;;;;;;;17.07;83.86;97826.16;1685621;83;20503;-67
2021/05/18 11:51:05;;;;;;;;;;;;;;;16.96;85.68;97831.53;1678302;84;20174;-65
2021/05/18 11:53:44;;;;;;;;;;;;;;;16.84;86.21;97832.35;1700658;82;20210;-66
2021/05/18 11:56:20;;;;;;;;;;;;;;;16.74;85.47;97839.28;1675934;84;20140;-66
2021/05/18 11:58:47;;;;;;;;;;;;;;;16.63;84.46;97840.93;1683372;84;20167;-66
2021/05/18 12:01:13;;;;;;;;;;;;;;;16.53;85.28;97854.02;1651921;84;20198;-66
2021/05/18 12:03:41;;;;;;;;;;;;;;;16.49;86.16;97858.47;1710996;83;20151;-69
2021/05/18 12:06:08;;;;;;;;;;;;;;;16.52;87.87;97855.88;1717940;82;20495;-64
2021/05/18 12:08:36;;;;;;;;;;;;;;;16.55;90.27;97851.40;1719680;82;20267;-63
2021/05/18 12:11:16;;;;;;;;;;;;;;;16.60;86.95;97854.19;1728537;81;20629;-62
2021/05/18 12:13:44;;;;;;;;;;;;;;;16.62;87.02;97853.44;1716420;82;20188;-63
2021/05/18 12:16:11;;;;;;;;;;;;;;;16.63;86.43;97859.61;1719837;82;20142;-63
2021/05/18 12:18:39;;;;;;;;;;;;;;;16.62;86.10;97860.11;1728148;82;20524;-63
2021/05/18 12:21:08;;;;;;;;;;;;;;;16.60;85.76;97853.39;1697271;82;20180;-61
2021/05/18 12:23:36;;;;;;;;;;;;;;;16.54;87.25;97856.46;1721235;81;20199;-63
2021/05/18 12:26:14;;;;;;;;;;;;;;;16.54;87.71;97856.46;1713491;83;20167;-63
2021/05/18 12:28:55;;;;;;;;;;;;;;;16.52;87.48;97853.21;1723737;81;20192;-63
2021/05/18 12:31:33;;;;;;;;;;;;;;;16.45;88.76;97844.50;1720067;81;20168;-64
2021/05/18 12:34:00;;;;;;;;;;;;;;;16.37;90.70;97848.33;1695105;83;20182;-63
2021/05/18 12:36:45;;;;;;;;;;;;;;;16.31;92.72;97849.25;1718874;82;20214;-63
2021/05/18 12:39:15;;;;;;;;;;;;;;;16.26;93.23;97848.59;1710518;82;20177;-63
2021/05/18 12:41:55;;;;;;;;;;;;;;;16.24;92.72;97848.54;1716563;83;20168;-63
2021/05/18 12:44:24;;;;;;;;;;;;;;;16.24;93.94;97847.20;1688526;83;20188;-62
2021/05/18 12:46:53;;;;;;;;;;;;;;;16.23;95.75;97850.37;1703106;83;20183;-62
2021/05/18 12:49:30;;;;;;;;;;;;;;;16.22;95.50;97849.29;1723787;82;20201;-61
2021/05/18 12:52:07;;;;;;;;;;;;;;;16.16;96.02;97851.02;1716641;81;20164;-62
2021/05/18 12:54:47;;;;;;;;;;;;;;;16.13;96.53;97853.33;1714617;82;20591;-63
2021/05/18 12:57:22;;;;;;;;;;;;;;;16.16;96.71;97851.02;1720308;81;20168;-62
2021/05/18 13:00:11;;;;;;;;;;;;;;;16.17;97.13;97857.96;1712885;83;20200;-64
2021/05/18 13:02:43;;;;;;;;;;;;;;;16.24;97.11;97857.88;1718682;81;20210;-62
2021/05/18 13:05:21;;;;;;;;;;;;;;;16.30;97.48;97857.75;1713014;83;20176;-63
2021/05/18 13:08:18;;;;;;;;;;;;;;;16.37;96.81;97850.19;1706110;82;20209;-62
2021/05/18 13:13:20;;;;;;;;;;;;;;;16.45;97.03;97837.83;1715718;82;20159;-63
2021/05/18 13:15:46;;;;;;;;;;;;;;;16.46;96.18;97834.94;1723792;83;20171;-65
2021/05/18 13:18:15;;;;;;;;;;;;;;;16.47;97.03;97833.08;1715988;81;20160;-66
2021/05/18 13:20:52;;;;;;;;;;;;;;;16.48;97.64;97839.52;1715726;81;20524;-65
2021/05/18 13:28:42;;;;;;;;;;;;;;;16.51;95.61;97838.23;1718301;82;20148;-65
2021/05/18 13:31:09;;;;;;;;;;;;;;;16.67;95.75;97827.41;1689881;83;20175;-64
2021/05/18 13:33:35;;;;;;;;;;;;;;;16.78;95.17;97823.92;1673336;84;20162;-64
2021/05/18 13:36:03;;;;;;;;;;;;;;;16.90;96.68;97810.59;1700505;83;20153;-64
2021/05/18 13:38:33;;;;;;;;;;;;;;;17.00;97.96;97815.32;1704590;83;20272;-65
2021/05/18 13:41:00;;;;;;;;;;;;;;;17.15;96.70;97819.67;1702057;83;20157;-64
2021/05/18 13:43:26;;;;;;;;;;;;;;;17.33;94.49;97825.89;1700910;83;20181;-66
2021/05/18 13:45:53;;;;;;;;;;;;;;;17.49;94.46;97825.15;1703920;84;20165;-64
2021/05/18 13:48:20;;;;;;;;;;;;;;;17.66;94.06;97837.22;1704483;84;20165;-64
2021/05/18 13:50:46;;;;;;;;;;;;;;;17.93;94.97;97835.33;1701580;83;20516;-65
2021/05/18 13:53:13;;;;;;;;;;;;;;;18.30;94.92;97843.71;1699128;83;20149;-64
2021/05/18 13:55:41;;;;;;;;;;;;;;;18.64;90.52;97834.34;1706326;83;20478;-65
2021/05/18 13:58:08;;;;;;;;;;;;;;;19.03;88.16;97825.01;1706902;83;20252;-68
2021/05/18 14:00:35;;;;;;;;;;;;;;;19.43;85.22;97828.44;1705595;82;20154;-65
2021/05/18 14:03:01;;;;;;;;;;;;;;;19.71;80.04;97833.59;1704456;84;20145;-65
2021/05/18 14:05:29;;;;;;;;;;;;;;;19.94;79.45;97832.50;1703583;83;20243;-64
2021/05/18 14:10:43;;;;;;;;;;;;;;;20.03;75.60;97819.96;1704356;84;20171;-64
2021/05/18 14:13:10;;;;;;;;;;;;;;;19.89;73.83;97827.09;1708522;84;20165;-64
2021/05/18 14:15:37;;;;;;;;;;;;;;;19.65;72.63;97821.17;1705825;83;20205;-63
2021/05/18 14:18:04;;;;;;;;;;;;;;;19.43;74.72;97814.50;1704292;83;20513;-64
2021/05/18 14:20:31;;;;;;;;;;;;;;;19.25;75.04;97804.93;1706545;83;20157;-64
2021/05/18 14:22:58;;;;;;;;;;;;;;;19.14;76.07;97799.97;1703959;84;20508;-64
2021/05/18 14:25:24;;;;;;;;;;;;;;;19.04;77.87;97799.86;1702770;83;20157;-63
2021/05/18 14:27:51;;;;;;;;;;;;;;;18.95;79.25;97799.47;1707808;82;20471;-63
2021/05/18 14:30:20;;;;;;;;;;;;;;;18.84;81.42;97784.86;1700338;83;20168;-63
2021/05/18 14:32:46;;;;;;;;;;;;;;;18.69;83.02;97795.60;1710536;83;20500;-65
2021/05/18 14:35:13;;;;;;;;;;;;;;;18.56;84.76;97789.27;1703470;84;20137;-64
2021/05/18 14:37:40;;;;;;;;;;;;;;;18.41;86.06;97789.84;1702069;84;20156;-64
2021/05/18 14:42:52;;;;;;;;;;;;;;;18.24;86.27;97786.64;1702820;83;20153;-64
2021/05/18 14:45:17;;;;;;;;;;;;;;;18.12;87.39;97785.90;1699472;83;20161;-64
2021/05/18 14:55:44;;;;;;;;;;;;;;;17.88;89.76;97795.95;1704669;84;20145;-64
2021/05/18 14:58:10;;;;;;;;;;;;;;;17.85;90.53;97791.08;1706518;83;20592;-64
2021/05/18 15:00:38;;;;;;;;;;;;;;;17.81;89.25;97789.38;1707065;83;20202;-64
2021/05/18 15:03:05;;;;;;;;;;;;;;;17.73;89.90;97788.45;1705952;84;20186;-64
2021/05/18 15:05:32;;;;;;;;;;;;;;;17.63;90.69;97787.72;1701535;84;20154;-63
2021/05/18 15:07:59;;;;;;;;;;;;;;;17.55;90.94;97791.31;1703596;83;20162;-64
2021/05/18 15:10:27;;;;;;;;;;;;;;;17.49;91.42;97795.75;1705668;84;20175;-64
2021/05/18 15:12:56;;;;;;;;;;;;;;;17.42;92.18;97793.75;1698994;84;20172;-64
2021/05/18 15:15:22;;;;;;;;;;;;;;;17.35;93.07;97785.86;1706191;84;20150;-63
2021/05/18 15:17:50;;;;;;;;;;;;;;;17.29;92.80;97788.69;1674814;84;20189;-63
2021/05/18 15:20:17;;;;;;;;;;;;;;;17.22;93.27;97785.60;1704429;84;20148;-63
2021/05/18 15:22:43;;;;;;;;;;;;;;;17.16;92.74;97789.77;1707520;84;20271;-64
2021/05/18 15:25:10;;;;;;;;;;;;;;;17.07;93.17;97795.98;1699348;84;20150;-63
2021/05/18 15:27:37;;;;;;;;;;;;;;;16.97;93.19;97797.13;1706016;84;20480;-64
2021/05/18 15:30:06;;;;;;;;;;;;;;;16.88;92.20;97800.14;1703433;84;20155;-64
2021/05/18 15:32:33;;;;;;;;;;;;;;;16.79;92.13;97796.17;1702887;83;20186;-64
2021/05/18 15:35:00;;;;;;;;;;;;;;;16.68;93.41;97791.66;1673383;84;20134;-64
2021/05/18 15:37:26;;;;;;;;;;;;;;;16.58;93.72;97791.44;1700594;84;20161;-63
2021/05/18 15:39:53;;;;;;;;;;;;;;;16.47;94.68;97787.19;1701888;84;20144;-63
2021/05/18 15:42:20;;;;;;;;;;;;;;;16.41;95.45;97781.46;1708627;84;20156;-64
2021/05/18 15:44:46;;;;;;;;;;;;;;;16.37;95.87;97780.31;1700799;83;20500;-64
2021/05/18 15:47:14;;;;;;;;;;;;;;;16.33;96.32;97779.16;1702278;84;20161;-64
2021/05/18 15:49:41;;;;;;;;;;;;;;;16.27;97.41;97770.72;1709156;82;20514;-63
2021/05/18 15:52:08;;;;;;;;;;;;;;;16.21;97.79;97767.13;1698431;84;20301;-64
2021/05/18 15:54:35;;;;;;;;;;;;;;;16.17;98.22;97770.50;1704890;83;20506;-64
2021/05/18 15:57:01;;;;;;;;;;;;;;;16.11;98.46;97765.03;1696738;83;20153;-64
2021/05/18 15:59:28;;;;;;;;;;;;;;;16.13;98.76;97758.67;1660916;84;20149;-65
2021/05/18 16:01:55;;;;;;;;;;;;;;;16.14;99.17;97758.45;1706391;84;20146;-64
2021/05/18 16:04:23;;;;;;;;;;;;;;;16.16;98.69;97748.36;1672897;84;20182;-65
2021/05/18 16:06:49;;;;;;;;;;;;;;;16.12;98.46;97745.84;1705413;84;20161;-64
2021/05/18 16:09:17;;;;;;;;;;;;;;;16.11;98.82;97739.70;1702290;83;20178;-65
2021/05/18 16:11:45;;;;;;;;;;;;;;;16.11;98.64;97738.91;1707088;83;20136;-63
2021/05/18 16:14:12;;;;;;;;;;;;;;;16.15;99.04;97749.92;1704666;84;20137;-63
2021/05/18 16:16:39;;;;;;;;;;;;;;;16.23;98.79;97751.70;1701964;83;20172;-63
2021/05/18 16:19:06;;;;;;;;;;;;;;;16.33;97.73;97760.98;1704636;83;20518;-63
2021/05/18 16:21:33;;;;;;;;;;;;;;;16.41;97.42;97772.12;1703442;84;20204;-63
2021/05/18 16:24:01;;;;;;;;;;;;;;;16.47;96.54;97767.19;1710406;83;20153;-65
2021/05/18 16:26:29;;;;;;;;;;;;;;;16.50;95.57;97765.93;1706280;83;20185;-63
2021/05/18 16:28:57;;;;;;;;;;;;;;;16.52;95.80;97760.37;1696913;84;20166;-64
2021/05/18 16:31:23;;;;;;;;;;;;;;;16.56;95.10;97758.32;1709497;84;20318;-63
2021/05/18 16:33:50;;;;;;;;;;;;;;;16.61;94.91;97758.97;1707268;84;20253;-65
2021/05/18 16:36:17;;;;;;;;;;;;;;;16.61;95.09;97761.11;1705378;84;20173;-62
2021/05/18 16:38:44;;;;;;;;;;;;;;;16.60;95.68;97756.00;1702951;83;20545;-67
2021/05/18 16:41:11;;;;;;;;;;;;;;;16.57;95.67;97749.78;1706466;83;20178;-64
2021/05/18 16:43:38;;;;;;;;;;;;;;;16.46;96.14;97751.44;1701168;83;20206;-64
2021/05/18 16:46:04;;;;;;;;;;;;;;;16.42;96.60;97747.09;1704631;82;20557;-64
2021/05/18 16:48:32;;;;;;;;;;;;;;;16.39;96.97;97734.20;1697254;83;20166;-64
2021/05/18 16:50:59;;;;;;;;;;;;;;;16.35;97.04;97723.72;1705888;84;20164;-64
2021/05/18 16:53:26;;;;;;;;;;;;;;;16.27;97.61;97723.55;1704884;84;20154;-64
2021/05/18 16:55:53;;;;;;;;;;;;;;;16.19;98.06;97721.22;1708174;84;20166;-64
2021/05/18 16:58:20;;;;;;;;;;;;;;;16.09;98.76;97711.13;1706009;84;20156;-64
2021/05/18 17:00:47;;;;;;;;;;;;;;;16.01;99.40;97712.82;1708076;83;20169;-63
2021/05/18 17:03:14;;;;;;;;;;;;;;;15.94;99.89;97713.45;1703095;82;20176;-63
2021/05/18 17:05:41;;;;;;;;;;;;;;;15.86;100.00;97699.95;1696577;83;20179;-63
2021/05/18 17:08:07;;;;;;;;;;;;;;;15.81;100.00;97689.69;1704637;84;20496;-63
2021/05/18 17:10:39;;;;;;;;;;;;;;;15.74;100.00;97686.31;1704715;83;20163;-63
2021/05/18 17:13:05;;;;;;;;;;;;;;;15.64;100.00;97683.66;1703490;84;20150;-63
2021/05/18 17:15:32;;;;;;;;;;;;;;;15.59;100.00;97684.86;1705453;83;20184;-65
2021/05/18 17:17:59;;;;;;;;;;;;;;;15.56;100.00;97685.34;1705425;84;20206;-62
2021/05/18 17:20:26;;;;;;;;;;;;;;;15.49;100.00;97692.08;1702497;83;20140;-64
2021/05/18 17:22:54;;;;;;;;;;;;;;;15.44;100.00;97699.13;1698628;83;20166;-63
2021/05/18 17:25:21;;;;;;;;;;;;;;;15.36;100.00;97702.13;1704426;84;20166;-63
2021/05/18 17:27:47;;;;;;;;;;;;;;;15.29;100.00;97694.22;1702340;84;20198;-63
2021/05/18 17:30:17;;;;;;;;;;;;;;;15.25;100.00;97699.19;1705870;84;20194;-63
2021/05/18 17:32:44;;;;;;;;;;;;;;;15.20;100.00;97695.58;1695346;83;20179;-63
2021/05/18 17:35:11;;;;;;;;;;;;;;;15.16;100.00;97691.75;1701777;84;20186;-65
2021/05/18 17:37:39;;;;;;;;;;;;;;;15.11;100.00;97698.56;1697611;84;20178;-64
2021/05/18 17:40:07;;;;;;;;;;;;;;;15.06;100.00;97694.95;1703772;84;20137;-64
2021/05/18 17:42:33;;;;;;;;;;;;;;;15.05;100.00;97701.30;1701991;84;20520;-64
2021/05/18 17:45:05;;;;;;;;;;;;;;;15.04;100.00;97695.70;1700299;83;20163;-64
2021/05/18 17:47:32;;;;;;;;;;;;;;;15.02;100.00;97691.09;1706781;83;20156;-64
2021/05/18 17:49:59;;;;;;;;;;;;;;;14.99;100.00;97686.24;1707290;84;20161;-63
2021/05/18 17:52:26;;;;;;;;;;;;;;;14.93;100.00;97695.41;1701696;83;20152;-64
2021/05/18 17:54:53;;;;;;;;;;;;;;;14.92;100.00;97688.45;1708671;84;20506;-64
2021/05/18 17:57:20;;;;;;;;;;;;;;;14.91;100.00;97688.17;1700776;84;20197;-64
2021/05/18 17:59:47;;;;;;;;;;;;;;;14.88;100.00;97689.14;1704775;84;20157;-64